sensor_id;sensor_type;location;lat;lon;timestamp;temperature;humidity
53498;DHT22;39382;47.168;16.008;2023-04-24T00:00:46;11.00;99.90
53498;DHT22;39382;47.168;16.008;2023-04-24T00:03:12;11.00;99.90
53498;DHT22;39382;47.168;16.008;2023-04-24T00:05:38;11.00;99.90
53498;DHT22;39382;47.168;16.008;2023-04-24T00:08:05;11.00;99.90
53498;DHT22;39382;47.168;16.008;2023-04-24T00:10:31;11.00;99.90
53498;DHT22;39382;47.168;16.008;2023-04-24T00:12:57;11.10;99.90
53498;DHT22;39382;47.168;16.008;2023-04-24T00:15:22;11.10;99.90
53498;DHT22;39382;47.168;16.008;2023-04-24T00:17:48;11.00;99.90
53498;DHT22;39382;47.168;16.008;2023-04-24T00:20:14;11.00;99.90
53498;DHT22;39382;47.168;16.008;2023-04-24T00:22:40;10.90;99.90
53498;DHT22;39382;47.168;16.008;2023-04-24T00:25:06;10.90;99.90
53498;DHT22;39382;47.168;16.008;2023-04-24T00:27:31;10.80;99.90
53498;DHT22;39382;47.168;16.008;2023-04-24T00:29:57;11.00;99.90
53498;DHT22;39382;47.168;16.008;2023-04-24T00:32:22;10.90;99.90
53498;DHT22;39382;47.168;16.008;2023-04-24T00:34:48;10.80;99.90
53498;DHT22;39382;47.168;16.008;2023-04-24T00:37:14;10.80;99.90
53498;DHT22;39382;47.168;16.008;2023-04-24T00:39:39;10.80;99.90
53498;DHT22;39382;47.168;16.008;2023-04-24T00:42:05;10.80;99.90
53498;DHT22;39382;47.168;16.008;2023-04-24T00:44:33;10.90;99.90
53498;DHT22;39382;47.168;16.008;2023-04-24T00:46:59;10.80;99.90
53498;DHT22;39382;47.168;16.008;2023-04-24T00:49:26;10.70;99.90
53498;DHT22;39382;47.168;16.008;2023-04-24T00:51:52;10.70;99.90
53498;DHT22;39382;47.168;16.008;2023-04-24T00:54:19;10.70;99.90
53498;DHT22;39382;47.168;16.008;2023-04-24T00:56:45;10.70;99.90
53498;DHT22;39382;47.168;16.008;2023-04-24T00:59:12;10.70;99.90
53498;DHT22;39382;47.168;16.008;2023-04-24T01:01:38;10.70;99.90
53498;DHT22;39382;47.168;16.008;2023-04-24T01:04:07;10.60;99.90
53498;DHT22;39382;47.168;16.008;2023-04-24T01:06:34;10.60;99.90
53498;DHT22;39382;47.168;16.008;2023-04-24T01:09:00;10.50;99.90
53498;DHT22;39382;47.168;16.008;2023-04-24T01:11:26;10.40;99.90
53498;DHT22;39382;47.168;16.008;2023-04-24T01:13:52;10.30;99.90
53498;DHT22;39382;47.168;16.008;2023-04-24T01:16:18;10.30;99.90
53498;DHT22;39382;47.168;16.008;2023-04-24T01:18:46;10.20;99.90
53498;DHT22;39382;47.168;16.008;2023-04-24T01:21:13;10.20;99.90
53498;DHT22;39382;47.168;16.008;2023-04-24T01:23:40;10.20;99.90
53498;DHT22;39382;47.168;16.008;2023-04-24T01:26:05;10.10;99.90
53498;DHT22;39382;47.168;16.008;2023-04-24T01:28:31;10.00;99.90
53498;DHT22;39382;47.168;16.008;2023-04-24T01:30:57;9.90;99.90
53498;DHT22;39382;47.168;16.008;2023-04-24T01:33:23;9.90;99.90
53498;DHT22;39382;47.168;16.008;2023-04-24T01:35:49;9.90;99.90
53498;DHT22;39382;47.168;16.008;2023-04-24T01:38:15;10.00;99.90
53498;DHT22;39382;47.168;16.008;2023-04-24T01:40:41;9.90;99.90
53498;DHT22;39382;47.168;16.008;2023-04-24T01:43:07;9.90;99.90
53498;DHT22;39382;47.168;16.008;2023-04-24T01:45:33;10.00;99.90
53498;DHT22;39382;47.168;16.008;2023-04-24T01:47:59;10.10;99.90
53498;DHT22;39382;47.168;16.008;2023-04-24T01:50:25;10.00;99.90
53498;DHT22;39382;47.168;16.008;2023-04-24T01:52:51;10.00;99.90
53498;DHT22;39382;47.168;16.008;2023-04-24T01:55:16;10.10;99.90
53498;DHT22;39382;47.168;16.008;2023-04-24T01:57:42;10.10;99.90
53498;DHT22;39382;47.168;16.008;2023-04-24T02:00:08;10.00;99.90
53498;DHT22;39382;47.168;16.008;2023-04-24T02:02:34;9.90;99.90
53498;DHT22;39382;47.168;16.008;2023-04-24T02:05:00;9.80;99.90
53498;DHT22;39382;47.168;16.008;2023-04-24T02:07:26;9.80;99.90
53498;DHT22;39382;47.168;16.008;2023-04-24T02:09:51;9.90;99.90
53498;DHT22;39382;47.168;16.008;2023-04-24T02:12:17;9.80;99.90
53498;DHT22;39382;47.168;16.008;2023-04-24T02:14:43;9.80;99.90
53498;DHT22;39382;47.168;16.008;2023-04-24T02:17:09;9.70;99.90
53498;DHT22;39382;47.168;16.008;2023-04-24T02:19:35;9.70;99.90
53498;DHT22;39382;47.168;16.008;2023-04-24T02:22:00;9.70;99.90
53498;DHT22;39382;47.168;16.008;2023-04-24T02:24:26;9.70;99.90
53498;DHT22;39382;47.168;16.008;2023-04-24T02:26:52;9.70;99.90
53498;DHT22;39382;47.168;16.008;2023-04-24T02:29:17;9.60;99.90
53498;DHT22;39382;47.168;16.008;2023-04-24T02:31:43;9.60;99.90
53498;DHT22;39382;47.168;16.008;2023-04-24T02:34:09;9.60;99.90
53498;DHT22;39382;47.168;16.008;2023-04-24T02:36:34;9.50;99.90
53498;DHT22;39382;47.168;16.008;2023-04-24T02:39:00;9.50;99.90
53498;DHT22;39382;47.168;16.008;2023-04-24T02:41:26;9.50;99.90
53498;DHT22;39382;47.168;16.008;2023-04-24T02:43:57;9.50;99.90
53498;DHT22;39382;47.168;16.008;2023-04-24T02:46:23;9.50;99.90
53498;DHT22;39382;47.168;16.008;2023-04-24T02:48:49;9.50;99.90
53498;DHT22;39382;47.168;16.008;2023-04-24T02:51:15;9.50;99.90
53498;DHT22;39382;47.168;16.008;2023-04-24T02:53:40;9.40;99.90
53498;DHT22;39382;47.168;16.008;2023-04-24T02:56:06;9.40;99.90
53498;DHT22;39382;47.168;16.008;2023-04-24T02:58:31;9.40;99.90
53498;DHT22;39382;47.168;16.008;2023-04-24T03:00:57;9.40;99.90
53498;DHT22;39382;47.168;16.008;2023-04-24T03:03:23;9.30;99.90
53498;DHT22;39382;47.168;16.008;2023-04-24T03:05:49;9.30;99.90
53498;DHT22;39382;47.168;16.008;2023-04-24T03:08:15;9.30;99.90
53498;DHT22;39382;47.168;16.008;2023-04-24T03:10:41;9.30;99.90
53498;DHT22;39382;47.168;16.008;2023-04-24T03:13:07;9.20;99.90
53498;DHT22;39382;47.168;16.008;2023-04-24T03:15:32;9.20;99.90
53498;DHT22;39382;47.168;16.008;2023-04-24T03:17:58;9.20;99.90
53498;DHT22;39382;47.168;16.008;2023-04-24T03:20:24;9.20;99.90
53498;DHT22;39382;47.168;16.008;2023-04-24T03:22:49;9.20;99.90
53498;DHT22;39382;47.168;16.008;2023-04-24T03:25:15;9.10;99.90
53498;DHT22;39382;47.168;16.008;2023-04-24T03:27:41;9.10;99.90
53498;DHT22;39382;47.168;16.008;2023-04-24T03:30:07;9.10;99.90
53498;DHT22;39382;47.168;16.008;2023-04-24T03:32:33;9.00;99.90
53498;DHT22;39382;47.168;16.008;2023-04-24T03:34:58;9.00;99.90
53498;DHT22;39382;47.168;16.008;2023-04-24T03:37:24;9.10;99.90
53498;DHT22;39382;47.168;16.008;2023-04-24T03:39:51;9.10;99.90
53498;DHT22;39382;47.168;16.008;2023-04-24T03:42:17;9.00;99.90
53498;DHT22;39382;47.168;16.008;2023-04-24T03:44:43;9.00;99.90
53498;DHT22;39382;47.168;16.008;2023-04-24T03:47:08;9.10;99.90
53498;DHT22;39382;47.168;16.008;2023-04-24T03:49:34;9.00;99.90
53498;DHT22;39382;47.168;16.008;2023-04-24T03:52:00;9.00;99.90
53498;DHT22;39382;47.168;16.008;2023-04-24T03:54:26;9.00;99.90
53498;DHT22;39382;47.168;16.008;2023-04-24T03:56:52;9.00;99.90
53498;DHT22;39382;47.168;16.008;2023-04-24T03:59:17;8.90;99.90
53498;DHT22;39382;47.168;16.008;2023-04-24T04:01:43;9.00;99.90
53498;DHT22;39382;47.168;16.008;2023-04-24T04:04:09;9.00;99.90
53498;DHT22;39382;47.168;16.008;2023-04-24T04:06:34;9.00;99.90
53498;DHT22;39382;47.168;16.008;2023-04-24T04:09:01;9.10;99.90
53498;DHT22;39382;47.168;16.008;2023-04-24T04:11:27;9.10;99.90
53498;DHT22;39382;47.168;16.008;2023-04-24T04:13:53;9.10;99.90
53498;DHT22;39382;47.168;16.008;2023-04-24T04:16:18;9.10;99.90
53498;DHT22;39382;47.168;16.008;2023-04-24T04:18:44;9.20;99.90
53498;DHT22;39382;47.168;16.008;2023-04-24T04:21:10;9.20;99.90
53498;DHT22;39382;47.168;16.008;2023-04-24T04:23:36;9.10;99.90
53498;DHT22;39382;47.168;16.008;2023-04-24T04:26:02;9.10;99.90
53498;DHT22;39382;47.168;16.008;2023-04-24T04:28:29;9.10;99.90
53498;DHT22;39382;47.168;16.008;2023-04-24T04:30:56;9.00;99.90
53498;DHT22;39382;47.168;16.008;2023-04-24T04:33:23;9.00;99.90
53498;DHT22;39382;47.168;16.008;2023-04-24T04:35:49;9.00;99.90
53498;DHT22;39382;47.168;16.008;2023-04-24T04:38:15;9.10;99.90
53498;DHT22;39382;47.168;16.008;2023-04-24T04:40:42;9.10;99.90
53498;DHT22;39382;47.168;16.008;2023-04-24T04:43:08;9.10;99.90
53498;DHT22;39382;47.168;16.008;2023-04-24T04:45:34;9.20;99.90
53498;DHT22;39382;47.168;16.008;2023-04-24T04:48:00;9.30;99.90
53498;DHT22;39382;47.168;16.008;2023-04-24T04:50:27;9.40;99.90
53498;DHT22;39382;47.168;16.008;2023-04-24T04:52:53;9.40;99.90
53498;DHT22;39382;47.168;16.008;2023-04-24T04:55:18;9.40;99.90
53498;DHT22;39382;47.168;16.008;2023-04-24T04:57:47;10.10;99.90
53498;DHT22;39382;47.168;16.008;2023-04-24T05:00:13;10.30;99.90
53498;DHT22;39382;47.168;16.008;2023-04-24T05:02:39;10.10;99.90
53498;DHT22;39382;47.168;16.008;2023-04-24T05:05:06;10.00;99.90
53498;DHT22;39382;47.168;16.008;2023-04-24T05:07:32;10.00;99.90
53498;DHT22;39382;47.168;16.008;2023-04-24T05:09:57;10.00;99.90
53498;DHT22;39382;47.168;16.008;2023-04-24T05:12:23;10.00;99.90
53498;DHT22;39382;47.168;16.008;2023-04-24T05:14:49;10.00;99.90
53498;DHT22;39382;47.168;16.008;2023-04-24T05:17:15;10.00;99.90
53498;DHT22;39382;47.168;16.008;2023-04-24T05:19:41;10.10;99.90
53498;DHT22;39382;47.168;16.008;2023-04-24T05:22:06;10.10;99.90
53498;DHT22;39382;47.168;16.008;2023-04-24T05:24:35;10.20;99.90
53498;DHT22;39382;47.168;16.008;2023-04-24T05:27:02;10.30;99.90
53498;DHT22;39382;47.168;16.008;2023-04-24T05:29:28;10.30;99.90
53498;DHT22;39382;47.168;16.008;2023-04-24T05:31:56;10.40;99.90
53498;DHT22;39382;47.168;16.008;2023-04-24T05:34:22;10.40;99.90
53498;DHT22;39382;47.168;16.008;2023-04-24T05:36:48;10.40;99.90
53498;DHT22;39382;47.168;16.008;2023-04-24T05:39:14;10.30;99.90
53498;DHT22;39382;47.168;16.008;2023-04-24T05:41:40;10.30;99.90
53498;DHT22;39382;47.168;16.008;2023-04-24T05:44:06;10.30;99.90
53498;DHT22;39382;47.168;16.008;2023-04-24T05:46:31;10.40;99.90
53498;DHT22;39382;47.168;16.008;2023-04-24T05:48:57;10.60;99.90
53498;DHT22;39382;47.168;16.008;2023-04-24T05:51:23;10.70;99.90
53498;DHT22;39382;47.168;16.008;2023-04-24T05:53:49;10.80;99.90
53498;DHT22;39382;47.168;16.008;2023-04-24T05:56:15;10.90;99.90
53498;DHT22;39382;47.168;16.008;2023-04-24T05:58:41;11.00;99.90
53498;DHT22;39382;47.168;16.008;2023-04-24T06:01:06;10.90;99.90
53498;DHT22;39382;47.168;16.008;2023-04-24T06:03:32;11.10;99.90
53498;DHT22;39382;47.168;16.008;2023-04-24T06:05:58;11.20;99.90
53498;DHT22;39382;47.168;16.008;2023-04-24T06:08:24;11.20;99.90
53498;DHT22;39382;47.168;16.008;2023-04-24T06:10:49;11.30;99.90
53498;DHT22;39382;47.168;16.008;2023-04-24T06:13:15;11.20;99.90
53498;DHT22;39382;47.168;16.008;2023-04-24T06:15:41;11.30;99.90
53498;DHT22;39382;47.168;16.008;2023-04-24T06:18:07;11.40;99.90
53498;DHT22;39382;47.168;16.008;2023-04-24T06:20:35;11.50;99.90
53498;DHT22;39382;47.168;16.008;2023-04-24T06:23:01;11.40;99.90
53498;DHT22;39382;47.168;16.008;2023-04-24T06:25:27;11.40;99.90
53498;DHT22;39382;47.168;16.008;2023-04-24T06:27:54;11.50;99.90
53498;DHT22;39382;47.168;16.008;2023-04-24T06:30:19;11.70;99.90
53498;DHT22;39382;47.168;16.008;2023-04-24T06:32:45;11.70;99.90
53498;DHT22;39382;47.168;16.008;2023-04-24T06:35:11;11.80;99.90
53498;DHT22;39382;47.168;16.008;2023-04-24T06:37:41;11.70;99.90
53498;DHT22;39382;47.168;16.008;2023-04-24T06:40:07;11.60;99.90
53498;DHT22;39382;47.168;16.008;2023-04-24T06:42:33;11.50;99.90
53498;DHT22;39382;47.168;16.008;2023-04-24T06:44:58;11.40;99.90
53498;DHT22;39382;47.168;16.008;2023-04-24T06:47:24;11.30;99.90
53498;DHT22;39382;47.168;16.008;2023-04-24T06:49:50;11.30;99.90
53498;DHT22;39382;47.168;16.008;2023-04-24T06:52:18;11.30;99.90
53498;DHT22;39382;47.168;16.008;2023-04-24T06:54:44;11.30;99.90
53498;DHT22;39382;47.168;16.008;2023-04-24T06:57:09;11.30;99.90
53498;DHT22;39382;47.168;16.008;2023-04-24T06:59:36;11.30;99.90
53498;DHT22;39382;47.168;16.008;2023-04-24T07:02:02;11.40;99.90
53498;DHT22;39382;47.168;16.008;2023-04-24T07:04:28;11.40;99.90
53498;DHT22;39382;47.168;16.008;2023-04-24T07:06:54;11.50;99.90
53498;DHT22;39382;47.168;16.008;2023-04-24T07:09:24;11.60;99.90
53498;DHT22;39382;47.168;16.008;2023-04-24T07:11:51;11.60;99.90
53498;DHT22;39382;47.168;16.008;2023-04-24T07:14:17;11.70;99.90
53498;DHT22;39382;47.168;16.008;2023-04-24T07:16:43;11.90;99.90
53498;DHT22;39382;47.168;16.008;2023-04-24T07:19:09;11.90;99.90
53498;DHT22;39382;47.168;16.008;2023-04-24T07:21:35;11.90;99.90
53498;DHT22;39382;47.168;16.008;2023-04-24T07:24:01;11.90;99.90
53498;DHT22;39382;47.168;16.008;2023-04-24T07:26:29;12.10;99.90
53498;DHT22;39382;47.168;16.008;2023-04-24T07:28:55;12.20;99.90
53498;DHT22;39382;47.168;16.008;2023-04-24T07:31:20;12.20;99.90
53498;DHT22;39382;47.168;16.008;2023-04-24T07:33:47;12.20;99.90
53498;DHT22;39382;47.168;16.008;2023-04-24T07:36:13;12.30;99.90
53498;DHT22;39382;47.168;16.008;2023-04-24T07:38:42;12.40;99.90
53498;DHT22;39382;47.168;16.008;2023-04-24T07:41:08;12.50;99.90
53498;DHT22;39382;47.168;16.008;2023-04-24T07:43:34;12.50;99.90
53498;DHT22;39382;47.168;16.008;2023-04-24T07:46:00;12.70;99.90
53498;DHT22;39382;47.168;16.008;2023-04-24T07:48:26;12.80;99.90
53498;DHT22;39382;47.168;16.008;2023-04-24T07:50:52;13.00;99.90
53498;DHT22;39382;47.168;16.008;2023-04-24T07:53:18;13.30;99.90
53498;DHT22;39382;47.168;16.008;2023-04-24T07:55:43;13.50;99.90
53498;DHT22;39382;47.168;16.008;2023-04-24T07:58:09;13.60;99.90
53498;DHT22;39382;47.168;16.008;2023-04-24T08:00:35;13.60;99.90
53498;DHT22;39382;47.168;16.008;2023-04-24T08:03:01;13.80;99.90
53498;DHT22;39382;47.168;16.008;2023-04-24T08:05:26;13.80;99.90
53498;DHT22;39382;47.168;16.008;2023-04-24T08:07:54;13.80;99.90
53498;DHT22;39382;47.168;16.008;2023-04-24T08:10:21;13.70;99.90
53498;DHT22;39382;47.168;16.008;2023-04-24T08:12:47;13.70;99.90
53498;DHT22;39382;47.168;16.008;2023-04-24T08:15:13;13.70;99.90
53498;DHT22;39382;47.168;16.008;2023-04-24T08:17:38;13.70;99.90
53498;DHT22;39382;47.168;16.008;2023-04-24T08:20:05;13.60;99.90
53498;DHT22;39382;47.168;16.008;2023-04-24T08:22:31;13.60;99.90
53498;DHT22;39382;47.168;16.008;2023-04-24T08:24:59;13.50;99.90
53498;DHT22;39382;47.168;16.008;2023-04-24T08:27:26;13.60;99.90
53498;DHT22;39382;47.168;16.008;2023-04-24T08:29:53;13.60;99.90
53498;DHT22;39382;47.168;16.008;2023-04-24T08:32:19;13.60;99.90
53498;DHT22;39382;47.168;16.008;2023-04-24T08:34:45;13.70;99.90
53498;DHT22;39382;47.168;16.008;2023-04-24T08:37:11;13.60;99.90
53498;DHT22;39382;47.168;16.008;2023-04-24T08:39:37;13.60;99.90
53498;DHT22;39382;47.168;16.008;2023-04-24T08:42:04;13.60;99.90
53498;DHT22;39382;47.168;16.008;2023-04-24T08:44:33;13.50;99.90
53498;DHT22;39382;47.168;16.008;2023-04-24T08:47:01;13.50;99.90
53498;DHT22;39382;47.168;16.008;2023-04-24T08:49:28;13.50;99.90
53498;DHT22;39382;47.168;16.008;2023-04-24T08:51:55;14.30;99.90
53498;DHT22;39382;47.168;16.008;2023-04-24T08:54:21;14.80;99.90
53498;DHT22;39382;47.168;16.008;2023-04-24T08:56:48;15.10;99.90
53498;DHT22;39382;47.168;16.008;2023-04-24T08:59:15;15.10;99.90
53498;DHT22;39382;47.168;16.008;2023-04-24T09:01:41;15.20;99.90
53498;DHT22;39382;47.168;16.008;2023-04-24T09:04:08;15.30;99.90
53498;DHT22;39382;47.168;16.008;2023-04-24T09:06:36;15.10;99.90
53498;DHT22;39382;47.168;16.008;2023-04-24T09:09:02;14.90;99.90
53498;DHT22;39382;47.168;16.008;2023-04-24T09:11:30;14.60;99.90
53498;DHT22;39382;47.168;16.008;2023-04-24T09:13:57;14.50;99.90
53498;DHT22;39382;47.168;16.008;2023-04-24T09:16:25;14.30;99.90
53498;DHT22;39382;47.168;16.008;2023-04-24T09:18:51;14.20;99.90
53498;DHT22;39382;47.168;16.008;2023-04-24T09:21:17;14.00;99.90
53498;DHT22;39382;47.168;16.008;2023-04-24T09:23:43;13.90;99.90
53498;DHT22;39382;47.168;16.008;2023-04-24T09:26:09;13.80;99.90
53498;DHT22;39382;47.168;16.008;2023-04-24T09:28:37;13.70;99.90
53498;DHT22;39382;47.168;16.008;2023-04-24T09:31:12;13.70;99.90
53498;DHT22;39382;47.168;16.008;2023-04-24T09:33:39;13.70;99.90
53498;DHT22;39382;47.168;16.008;2023-04-24T09:36:04;13.60;99.90
53498;DHT22;39382;47.168;16.008;2023-04-24T09:38:36;13.50;99.90
53498;DHT22;39382;47.168;16.008;2023-04-24T09:41:05;13.50;99.90
53498;DHT22;39382;47.168;16.008;2023-04-24T09:43:32;13.30;99.90
53498;DHT22;39382;47.168;16.008;2023-04-24T09:45:58;13.30;99.90
53498;DHT22;39382;47.168;16.008;2023-04-24T09:48:35;13.40;99.90
53498;DHT22;39382;47.168;16.008;2023-04-24T09:51:03;13.40;99.90
53498;DHT22;39382;47.168;16.008;2023-04-24T09:53:30;13.50;99.90
53498;DHT22;39382;47.168;16.008;2023-04-24T09:55:59;13.50;99.90
53498;DHT22;39382;47.168;16.008;2023-04-24T09:58:27;13.50;99.90
53498;DHT22;39382;47.168;16.008;2023-04-24T10:00:54;13.40;99.90
53498;DHT22;39382;47.168;16.008;2023-04-24T10:03:21;13.40;99.90
53498;DHT22;39382;47.168;16.008;2023-04-24T10:05:48;13.40;99.90
53498;DHT22;39382;47.168;16.008;2023-04-24T10:08:16;13.40;99.90
53498;DHT22;39382;47.168;16.008;2023-04-24T10:10:44;13.50;99.90
53498;DHT22;39382;47.168;16.008;2023-04-24T10:13:11;13.50;99.90
53498;DHT22;39382;47.168;16.008;2023-04-24T10:15:38;13.50;99.90
53498;DHT22;39382;47.168;16.008;2023-04-24T10:18:07;13.40;99.90
53498;DHT22;39382;47.168;16.008;2023-04-24T10:20:35;13.30;99.90
53498;DHT22;39382;47.168;16.008;2023-04-24T10:23:02;13.20;99.90
53498;DHT22;39382;47.168;16.008;2023-04-24T10:25:33;13.10;99.90
53498;DHT22;39382;47.168;16.008;2023-04-24T10:28:00;13.10;99.90
53498;DHT22;39382;47.168;16.008;2023-04-24T10:30:31;13.10;99.90
53498;DHT22;39382;47.168;16.008;2023-04-24T10:33:09;13.10;99.90
53498;DHT22;39382;47.168;16.008;2023-04-24T10:35:38;13.10;99.90
53498;DHT22;39382;47.168;16.008;2023-04-24T10:38:16;13.00;99.90
53498;DHT22;39382;47.168;16.008;2023-04-24T10:40:42;13.10;99.90
53498;DHT22;39382;47.168;16.008;2023-04-24T10:43:09;13.20;99.90
53498;DHT22;39382;47.168;16.008;2023-04-24T10:45:37;13.10;99.90
53498;DHT22;39382;47.168;16.008;2023-04-24T10:48:09;13.10;99.90
53498;DHT22;39382;47.168;16.008;2023-04-24T10:50:52;13.20;99.90
53498;DHT22;39382;47.168;16.008;2023-04-24T10:53:20;13.30;99.90
53498;DHT22;39382;47.168;16.008;2023-04-24T10:56:06;13.40;99.90
53498;DHT22;39382;47.168;16.008;2023-04-24T10:58:38;13.20;99.90
53498;DHT22;39382;47.168;16.008;2023-04-24T11:01:05;13.40;99.90
53498;DHT22;39382;47.168;16.008;2023-04-24T11:03:33;13.40;99.90
53498;DHT22;39382;47.168;16.008;2023-04-24T11:06:06;13.50;99.90
53498;DHT22;39382;47.168;16.008;2023-04-24T11:11:12;13.40;99.90
53498;DHT22;39382;47.168;16.008;2023-04-24T11:21:58;13.40;99.90
53498;DHT22;39382;47.168;16.008;2023-04-24T11:27:15;13.20;99.90
53498;DHT22;39382;47.168;16.008;2023-04-24T11:29:58;13.20;99.90
53498;DHT22;39382;47.168;16.008;2023-04-24T11:32:28;13.20;99.90
53498;DHT22;39382;47.168;16.008;2023-04-24T11:37:36;13.80;99.90
53498;DHT22;39382;47.168;16.008;2023-04-24T11:40:04;13.70;99.90
53498;DHT22;39382;47.168;16.008;2023-04-24T11:42:34;13.50;99.90
53498;DHT22;39382;47.168;16.008;2023-04-24T11:45:00;13.30;99.90
53498;DHT22;39382;47.168;16.008;2023-04-24T11:47:31;13.00;99.90
53498;DHT22;39382;47.168;16.008;2023-04-24T11:49:59;12.80;99.90
53498;DHT22;39382;47.168;16.008;2023-04-24T11:52:29;12.80;99.90
53498;DHT22;39382;47.168;16.008;2023-04-24T11:54:55;12.60;99.90
53498;DHT22;39382;47.168;16.008;2023-04-24T11:57:21;12.60;99.90
53498;DHT22;39382;47.168;16.008;2023-04-24T11:59:48;12.60;99.90
53498;DHT22;39382;47.168;16.008;2023-04-24T12:02:23;12.60;99.90
53498;DHT22;39382;47.168;16.008;2023-04-24T12:04:50;12.60;99.90
53498;DHT22;39382;47.168;16.008;2023-04-24T12:07:15;12.60;99.90
53498;DHT22;39382;47.168;16.008;2023-04-24T12:09:55;12.60;99.90
53498;DHT22;39382;47.168;16.008;2023-04-24T12:12:25;12.60;99.90
53498;DHT22;39382;47.168;16.008;2023-04-24T12:14:58;12.80;99.90
53498;DHT22;39382;47.168;16.008;2023-04-24T12:17:29;13.50;99.90
53498;DHT22;39382;47.168;16.008;2023-04-24T12:22:25;14.20;99.90
53498;DHT22;39382;47.168;16.008;2023-04-24T12:27:28;14.80;99.90
53498;DHT22;39382;47.168;16.008;2023-04-24T12:30:02;14.80;99.90
53498;DHT22;39382;47.168;16.008;2023-04-24T12:32:28;14.80;99.90
53498;DHT22;39382;47.168;16.008;2023-04-24T12:34:55;14.30;99.90
53498;DHT22;39382;47.168;16.008;2023-04-24T12:37:23;14.20;99.90
53498;DHT22;39382;47.168;16.008;2023-04-24T12:40:11;14.00;99.90
53498;DHT22;39382;47.168;16.008;2023-04-24T12:43:12;13.70;99.90
53498;DHT22;39382;47.168;16.008;2023-04-24T12:45:38;13.50;99.90
53498;DHT22;39382;47.168;16.008;2023-04-24T12:48:04;13.50;99.90
53498;DHT22;39382;47.168;16.008;2023-04-24T12:50:29;13.50;99.90
53498;DHT22;39382;47.168;16.008;2023-04-24T12:52:55;13.40;99.90
53498;DHT22;39382;47.168;16.008;2023-04-24T12:55:21;13.40;99.90
53498;DHT22;39382;47.168;16.008;2023-04-24T12:57:46;13.40;99.90
53498;DHT22;39382;47.168;16.008;2023-04-24T13:00:12;13.50;99.90
53498;DHT22;39382;47.168;16.008;2023-04-24T13:02:38;13.40;99.90
53498;DHT22;39382;47.168;16.008;2023-04-24T13:05:04;14.10;99.90
53498;DHT22;39382;47.168;16.008;2023-04-24T13:07:30;14.40;99.90
53498;DHT22;39382;47.168;16.008;2023-04-24T13:09:56;14.40;99.90
53498;DHT22;39382;47.168;16.008;2023-04-24T13:12:23;14.50;99.90
53498;DHT22;39382;47.168;16.008;2023-04-24T13:14:52;14.40;99.90
53498;DHT22;39382;47.168;16.008;2023-04-24T13:17:17;14.50;99.90
53498;DHT22;39382;47.168;16.008;2023-04-24T13:19:44;14.80;99.90
53498;DHT22;39382;47.168;16.008;2023-04-24T13:22:11;15.00;99.90
53498;DHT22;39382;47.168;16.008;2023-04-24T13:24:37;14.50;99.90
53498;DHT22;39382;47.168;16.008;2023-04-24T13:27:03;14.40;99.90
53498;DHT22;39382;47.168;16.008;2023-04-24T13:29:29;14.10;99.90
53498;DHT22;39382;47.168;16.008;2023-04-24T13:31:55;13.90;99.90
53498;DHT22;39382;47.168;16.008;2023-04-24T13:34:22;13.70;99.90
53498;DHT22;39382;47.168;16.008;2023-04-24T13:36:48;13.50;99.90
53498;DHT22;39382;47.168;16.008;2023-04-24T13:39:14;13.40;99.90
53498;DHT22;39382;47.168;16.008;2023-04-24T13:41:41;13.40;99.90
53498;DHT22;39382;47.168;16.008;2023-04-24T13:44:06;13.40;99.90
53498;DHT22;39382;47.168;16.008;2023-04-24T13:46:32;13.50;99.90
53498;DHT22;39382;47.168;16.008;2023-04-24T13:48:58;13.50;99.90
53498;DHT22;39382;47.168;16.008;2023-04-24T13:51:25;13.50;99.90
53498;DHT22;39382;47.168;16.008;2023-04-24T13:53:54;13.40;99.90
53498;DHT22;39382;47.168;16.008;2023-04-24T13:56:20;13.40;99.90
53498;DHT22;39382;47.168;16.008;2023-04-24T13:58:46;13.50;99.90
53498;DHT22;39382;47.168;16.008;2023-04-24T14:01:12;13.50;99.90
53498;DHT22;39382;47.168;16.008;2023-04-24T14:03:38;13.40;99.90
53498;DHT22;39382;47.168;16.008;2023-04-24T14:06:04;13.60;99.90
53498;DHT22;39382;47.168;16.008;2023-04-24T14:08:31;13.60;99.90
53498;DHT22;39382;47.168;16.008;2023-04-24T14:10:57;13.70;99.90
53498;DHT22;39382;47.168;16.008;2023-04-24T14:13:23;13.70;99.90
53498;DHT22;39382;47.168;16.008;2023-04-24T14:15:49;13.60;99.90
53498;DHT22;39382;47.168;16.008;2023-04-24T14:18:15;13.70;99.90
53498;DHT22;39382;47.168;16.008;2023-04-24T14:20:40;13.80;99.90
53498;DHT22;39382;47.168;16.008;2023-04-24T14:23:06;13.60;99.90
53498;DHT22;39382;47.168;16.008;2023-04-24T14:25:31;13.70;99.90
53498;DHT22;39382;47.168;16.008;2023-04-24T14:27:57;13.70;99.90
53498;DHT22;39382;47.168;16.008;2023-04-24T14:30:23;13.60;99.90
53498;DHT22;39382;47.168;16.008;2023-04-24T14:32:48;13.60;99.90
53498;DHT22;39382;47.168;16.008;2023-04-24T14:35:15;13.60;99.90
53498;DHT22;39382;47.168;16.008;2023-04-24T14:37:40;13.70;99.90
53498;DHT22;39382;47.168;16.008;2023-04-24T14:40:08;13.60;99.90
53498;DHT22;39382;47.168;16.008;2023-04-24T14:42:34;13.70;99.90
53498;DHT22;39382;47.168;16.008;2023-04-24T14:45:00;13.80;99.90
53498;DHT22;39382;47.168;16.008;2023-04-24T14:47:26;13.60;99.90
53498;DHT22;39382;47.168;16.008;2023-04-24T14:49:52;13.60;99.90
53498;DHT22;39382;47.168;16.008;2023-04-24T14:52:17;13.60;99.90
53498;DHT22;39382;47.168;16.008;2023-04-24T14:54:43;13.50;99.90
53498;DHT22;39382;47.168;16.008;2023-04-24T14:57:09;13.50;99.90
53498;DHT22;39382;47.168;16.008;2023-04-24T14:59:35;13.70;99.90
53498;DHT22;39382;47.168;16.008;2023-04-24T15:02:01;13.80;99.90
53498;DHT22;39382;47.168;16.008;2023-04-24T15:04:28;13.70;99.90
53498;DHT22;39382;47.168;16.008;2023-04-24T15:06:54;13.70;99.90
53498;DHT22;39382;47.168;16.008;2023-04-24T15:09:21;13.60;99.90
53498;DHT22;39382;47.168;16.008;2023-04-24T15:11:48;13.60;99.90
53498;DHT22;39382;47.168;16.008;2023-04-24T15:14:15;13.50;99.90
53498;DHT22;39382;47.168;16.008;2023-04-24T15:16:41;13.40;99.90
53498;DHT22;39382;47.168;16.008;2023-04-24T15:19:07;13.40;99.90
53498;DHT22;39382;47.168;16.008;2023-04-24T15:21:32;13.50;99.90
53498;DHT22;39382;47.168;16.008;2023-04-24T15:23:58;13.30;99.90
53498;DHT22;39382;47.168;16.008;2023-04-24T15:26:24;13.40;99.90
53498;DHT22;39382;47.168;16.008;2023-04-24T15:28:51;13.30;99.90
53498;DHT22;39382;47.168;16.008;2023-04-24T15:31:17;13.20;99.90
53498;DHT22;39382;47.168;16.008;2023-04-24T15:33:43;13.10;99.90
53498;DHT22;39382;47.168;16.008;2023-04-24T15:36:09;13.10;99.90
53498;DHT22;39382;47.168;16.008;2023-04-24T15:38:35;13.00;99.90